sensor_id;sensor_type;location;lat;lon;timestamp;temperature;humidity
59128;DHT22;44912;52.754;5.994;2023-09-19T00:02:23;14.30;99.90
59128;DHT22;44912;52.754;5.994;2023-09-19T00:04:48;14.30;99.90
59128;DHT22;44912;52.754;5.994;2023-09-19T00:07:15;14.20;99.90
59128;DHT22;44912;52.754;5.994;2023-09-19T00:09:41;14.30;99.90
59128;DHT22;44912;52.754;5.994;2023-09-19T00:12:09;14.40;99.90
59128;DHT22;44912;52.754;5.994;2023-09-19T00:14:35;14.40;99.90
59128;DHT22;44912;52.754;5.994;2023-09-19T00:17:04;14.30;99.90
59128;DHT22;44912;52.754;5.994;2023-09-19T00:19:36;14.40;99.90
59128;DHT22;44912;52.754;5.994;2023-09-19T00:22:04;14.30;99.90
59128;DHT22;44912;52.754;5.994;2023-09-19T00:24:29;14.30;99.90
59128;DHT22;44912;52.754;5.994;2023-09-19T00:26:56;14.30;99.90
59128;DHT22;44912;52.754;5.994;2023-09-19T00:29:25;14.30;99.90
59128;DHT22;44912;52.754;5.994;2023-09-19T00:31:54;14.30;99.90
59128;DHT22;44912;52.754;5.994;2023-09-19T00:34:20;14.30;99.90
59128;DHT22;44912;52.754;5.994;2023-09-19T00:36:45;14.40;99.90
59128;DHT22;44912;52.754;5.994;2023-09-19T00:39:11;14.40;99.90
59128;DHT22;44912;52.754;5.994;2023-09-19T00:41:36;14.40;99.90
59128;DHT22;44912;52.754;5.994;2023-09-19T00:44:03;14.40;99.90
59128;DHT22;44912;52.754;5.994;2023-09-19T00:46:30;14.40;99.90
59128;DHT22;44912;52.754;5.994;2023-09-19T00:48:58;14.40;99.90
59128;DHT22;44912;52.754;5.994;2023-09-19T00:51:25;14.40;99.90
59128;DHT22;44912;52.754;5.994;2023-09-19T00:53:51;14.30;99.90
59128;DHT22;44912;52.754;5.994;2023-09-19T00:56:18;14.20;99.90
59128;DHT22;44912;52.754;5.994;2023-09-19T00:58:45;14.10;99.90
59128;DHT22;44912;52.754;5.994;2023-09-19T01:01:12;14.10;99.90
59128;DHT22;44912;52.754;5.994;2023-09-19T01:03:40;14.10;99.90
59128;DHT22;44912;52.754;5.994;2023-09-19T01:06:06;14.10;99.90
59128;DHT22;44912;52.754;5.994;2023-09-19T01:08:33;14.10;99.90
59128;DHT22;44912;52.754;5.994;2023-09-19T01:14:03;14.00;99.90
59128;DHT22;44912;52.754;5.994;2023-09-19T01:16:45;13.90;99.90
59128;DHT22;44912;52.754;5.994;2023-09-19T01:20:03;13.90;99.90
59128;DHT22;44912;52.754;5.994;2023-09-19T01:28:20;13.70;99.90
59128;DHT22;44912;52.754;5.994;2023-09-19T01:30:57;13.70;99.90
59128;DHT22;44912;52.754;5.994;2023-09-19T01:33:26;13.60;99.90
59128;DHT22;44912;52.754;5.994;2023-09-19T01:35:52;13.60;99.90
59128;DHT22;44912;52.754;5.994;2023-09-19T01:38:19;13.70;99.90
59128;DHT22;44912;52.754;5.994;2023-09-19T01:41:12;13.60;99.90
59128;DHT22;44912;52.754;5.994;2023-09-19T01:43:42;13.60;99.90
59128;DHT22;44912;52.754;5.994;2023-09-19T01:46:33;13.60;99.90
59128;DHT22;44912;52.754;5.994;2023-09-19T01:49:22;13.70;99.90
59128;DHT22;44912;52.754;5.994;2023-09-19T01:52:12;13.70;99.90
59128;DHT22;44912;52.754;5.994;2023-09-19T01:54:58;13.70;99.90
59128;DHT22;44912;52.754;5.994;2023-09-19T01:57:29;13.70;99.90
59128;DHT22;44912;52.754;5.994;2023-09-19T02:00:07;13.80;99.90
59128;DHT22;44912;52.754;5.994;2023-09-19T02:02:39;13.90;99.90
59128;DHT22;44912;52.754;5.994;2023-09-19T02:05:06;13.80;99.90
59128;DHT22;44912;52.754;5.994;2023-09-19T02:07:31;13.90;99.90
59128;DHT22;44912;52.754;5.994;2023-09-19T02:09:58;13.80;99.90
59128;DHT22;44912;52.754;5.994;2023-09-19T02:12:28;13.90;99.90
59128;DHT22;44912;52.754;5.994;2023-09-19T02:14:55;13.90;99.90
59128;DHT22;44912;52.754;5.994;2023-09-19T02:17:22;13.80;99.90
59128;DHT22;44912;52.754;5.994;2023-09-19T02:19:54;13.80;99.90
59128;DHT22;44912;52.754;5.994;2023-09-19T02:22:24;13.80;99.90
59128;DHT22;44912;52.754;5.994;2023-09-19T02:24:50;13.80;99.90
59128;DHT22;44912;52.754;5.994;2023-09-19T02:27:16;13.80;99.90
59128;DHT22;44912;52.754;5.994;2023-09-19T02:29:43;13.80;99.90
59128;DHT22;44912;52.754;5.994;2023-09-19T02:32:08;13.70;99.90
59128;DHT22;44912;52.754;5.994;2023-09-19T02:34:37;13.80;99.90
59128;DHT22;44912;52.754;5.994;2023-09-19T02:37:07;13.80;99.90
59128;DHT22;44912;52.754;5.994;2023-09-19T02:39:34;13.80;99.90
59128;DHT22;44912;52.754;5.994;2023-09-19T02:42:00;13.90;99.90
59128;DHT22;44912;52.754;5.994;2023-09-19T02:44:25;13.90;99.90
59128;DHT22;44912;52.754;5.994;2023-09-19T02:46:51;13.90;99.90
59128;DHT22;44912;52.754;5.994;2023-09-19T02:49:16;13.80;99.90
59128;DHT22;44912;52.754;5.994;2023-09-19T02:51:43;13.80;99.90
59128;DHT22;44912;52.754;5.994;2023-09-19T02:54:09;13.80;99.90
59128;DHT22;44912;52.754;5.994;2023-09-19T02:56:35;13.80;99.90
59128;DHT22;44912;52.754;5.994;2023-09-19T02:59:01;13.80;99.90
59128;DHT22;44912;52.754;5.994;2023-09-19T03:01:27;13.80;99.90
59128;DHT22;44912;52.754;5.994;2023-09-19T03:03:53;13.80;99.90
59128;DHT22;44912;52.754;5.994;2023-09-19T03:06:20;13.90;99.90
59128;DHT22;44912;52.754;5.994;2023-09-19T03:08:47;13.90;99.90
59128;DHT22;44912;52.754;5.994;2023-09-19T03:11:14;13.90;99.90
59128;DHT22;44912;52.754;5.994;2023-09-19T03:13:41;14.00;99.90
59128;DHT22;44912;52.754;5.994;2023-09-19T03:16:08;14.10;99.90
59128;DHT22;44912;52.754;5.994;2023-09-19T03:18:34;14.00;99.90
59128;DHT22;44912;52.754;5.994;2023-09-19T03:21:00;14.00;99.90
59128;DHT22;44912;52.754;5.994;2023-09-19T03:23:27;14.00;99.90
59128;DHT22;44912;52.754;5.994;2023-09-19T03:25:56;13.90;99.90
59128;DHT22;44912;52.754;5.994;2023-09-19T03:28:22;13.90;99.90
59128;DHT22;44912;52.754;5.994;2023-09-19T03:31:05;13.90;99.90
59128;DHT22;44912;52.754;5.994;2023-09-19T03:33:31;13.90;99.90
59128;DHT22;44912;52.754;5.994;2023-09-19T03:35:58;13.80;99.90
59128;DHT22;44912;52.754;5.994;2023-09-19T03:38:25;13.80;99.90
59128;DHT22;44912;52.754;5.994;2023-09-19T03:40:50;13.90;99.90
59128;DHT22;44912;52.754;5.994;2023-09-19T03:43:16;13.80;99.90
59128;DHT22;44912;52.754;5.994;2023-09-19T03:45:41;13.80;99.90
59128;DHT22;44912;52.754;5.994;2023-09-19T03:48:11;13.90;99.90
59128;DHT22;44912;52.754;5.994;2023-09-19T03:50:36;13.90;99.90
59128;DHT22;44912;52.754;5.994;2023-09-19T03:53:02;13.90;99.90
59128;DHT22;44912;52.754;5.994;2023-09-19T03:55:28;13.90;99.90
59128;DHT22;44912;52.754;5.994;2023-09-19T03:57:55;13.90;99.90
59128;DHT22;44912;52.754;5.994;2023-09-19T04:00:21;13.90;99.90
59128;DHT22;44912;52.754;5.994;2023-09-19T04:02:51;14.00;99.90
59128;DHT22;44912;52.754;5.994;2023-09-19T04:05:17;14.00;99.90
59128;DHT22;44912;52.754;5.994;2023-09-19T04:07:42;14.00;99.90
59128;DHT22;44912;52.754;5.994;2023-09-19T04:10:08;14.10;99.90
59128;DHT22;44912;52.754;5.994;2023-09-19T04:12:37;14.10;99.90
59128;DHT22;44912;52.754;5.994;2023-09-19T04:15:02;14.20;99.90
59128;DHT22;44912;52.754;5.994;2023-09-19T04:17:28;14.10;99.90
59128;DHT22;44912;52.754;5.994;2023-09-19T04:19:54;14.20;99.90
59128;DHT22;44912;52.754;5.994;2023-09-19T04:22:19;14.30;99.90
59128;DHT22;44912;52.754;5.994;2023-09-19T04:24:45;14.30;99.90
59128;DHT22;44912;52.754;5.994;2023-09-19T04:27:10;14.30;99.90
59128;DHT22;44912;52.754;5.994;2023-09-19T04:29:40;14.30;99.90
59128;DHT22;44912;52.754;5.994;2023-09-19T04:32:07;14.30;99.90
59128;DHT22;44912;52.754;5.994;2023-09-19T04:34:33;14.40;99.90
59128;DHT22;44912;52.754;5.994;2023-09-19T04:37:00;14.30;99.90
59128;DHT22;44912;52.754;5.994;2023-09-19T04:39:26;14.20;99.90
59128;DHT22;44912;52.754;5.994;2023-09-19T04:41:52;14.10;99.90
59128;DHT22;44912;52.754;5.994;2023-09-19T04:44:18;14.00;99.90
59128;DHT22;44912;52.754;5.994;2023-09-19T04:46:44;14.00;99.90
59128;DHT22;44912;52.754;5.994;2023-09-19T04:49:10;14.10;99.90
59128;DHT22;44912;52.754;5.994;2023-09-19T04:51:36;14.00;99.90
59128;DHT22;44912;52.754;5.994;2023-09-19T04:54:02;14.00;99.90
59128;DHT22;44912;52.754;5.994;2023-09-19T04:56:28;14.00;99.90
59128;DHT22;44912;52.754;5.994;2023-09-19T04:58:54;14.00;99.90
59128;DHT22;44912;52.754;5.994;2023-09-19T05:01:19;14.00;99.90
59128;DHT22;44912;52.754;5.994;2023-09-19T05:03:48;13.90;99.90
59128;DHT22;44912;52.754;5.994;2023-09-19T05:06:18;14.00;99.90
59128;DHT22;44912;52.754;5.994;2023-09-19T05:08:43;14.00;99.90
59128;DHT22;44912;52.754;5.994;2023-09-19T05:11:09;13.90;99.90
59128;DHT22;44912;52.754;5.994;2023-09-19T05:13:34;13.90;99.90
59128;DHT22;44912;52.754;5.994;2023-09-19T05:16:00;13.90;99.90
59128;DHT22;44912;52.754;5.994;2023-09-19T05:18:29;14.00;99.90
59128;DHT22;44912;52.754;5.994;2023-09-19T05:20:54;13.90;99.90
59128;DHT22;44912;52.754;5.994;2023-09-19T05:23:21;13.80;99.90
59128;DHT22;44912;52.754;5.994;2023-09-19T05:25:46;13.90;99.90
59128;DHT22;44912;52.754;5.994;2023-09-19T05:28:12;13.80;99.90
59128;DHT22;44912;52.754;5.994;2023-09-19T05:30:40;13.80;99.90
59128;DHT22;44912;52.754;5.994;2023-09-19T05:33:06;13.80;99.90
59128;DHT22;44912;52.754;5.994;2023-09-19T05:35:33;13.70;99.90
59128;DHT22;44912;52.754;5.994;2023-09-19T05:37:59;13.80;99.90
59128;DHT22;44912;52.754;5.994;2023-09-19T05:40:25;13.80;99.90
59128;DHT22;44912;52.754;5.994;2023-09-19T05:42:51;13.80;99.90
59128;DHT22;44912;52.754;5.994;2023-09-19T05:45:17;13.80;99.90
59128;DHT22;44912;52.754;5.994;2023-09-19T05:47:49;13.80;99.90
59128;DHT22;44912;52.754;5.994;2023-09-19T05:50:16;13.80;99.90
59128;DHT22;44912;52.754;5.994;2023-09-19T05:52:43;13.90;99.90
59128;DHT22;44912;52.754;5.994;2023-09-19T05:55:17;13.90;99.90
59128;DHT22;44912;52.754;5.994;2023-09-19T05:57:43;13.90;99.90
59128;DHT22;44912;52.754;5.994;2023-09-19T06:00:09;13.90;99.90
59128;DHT22;44912;52.754;5.994;2023-09-19T06:02:37;14.00;99.90
59128;DHT22;44912;52.754;5.994;2023-09-19T06:05:04;14.00;99.90
59128;DHT22;44912;52.754;5.994;2023-09-19T06:07:32;14.00;99.90
59128;DHT22;44912;52.754;5.994;2023-09-19T06:10:05;14.00;99.90
59128;DHT22;44912;52.754;5.994;2023-09-19T06:12:31;14.10;99.90
59128;DHT22;44912;52.754;5.994;2023-09-19T06:14:59;14.10;99.90
59128;DHT22;44912;52.754;5.994;2023-09-19T06:17:25;14.10;99.90
59128;DHT22;44912;52.754;5.994;2023-09-19T06:19:52;14.10;99.90
59128;DHT22;44912;52.754;5.994;2023-09-19T06:22:18;14.00;99.90
59128;DHT22;44912;52.754;5.994;2023-09-19T06:24:44;14.00;99.90
59128;DHT22;44912;52.754;5.994;2023-09-19T06:27:10;14.10;99.90
59128;DHT22;44912;52.754;5.994;2023-09-19T06:29:35;14.00;99.90
59128;DHT22;44912;52.754;5.994;2023-09-19T06:32:07;14.10;99.90
59128;DHT22;44912;52.754;5.994;2023-09-19T06:34:33;14.00;99.90
59128;DHT22;44912;52.754;5.994;2023-09-19T06:36:58;14.10;99.90
59128;DHT22;44912;52.754;5.994;2023-09-19T06:39:24;14.10;99.90
59128;DHT22;44912;52.754;5.994;2023-09-19T06:41:51;14.20;99.90
59128;DHT22;44912;52.754;5.994;2023-09-19T06:44:19;14.10;99.90
59128;DHT22;44912;52.754;5.994;2023-09-19T06:46:47;14.20;99.90
59128;DHT22;44912;52.754;5.994;2023-09-19T06:49:15;14.20;99.90
59128;DHT22;44912;52.754;5.994;2023-09-19T06:51:41;14.20;99.90
59128;DHT22;44912;52.754;5.994;2023-09-19T06:54:07;14.20;99.90
59128;DHT22;44912;52.754;5.994;2023-09-19T06:56:32;14.30;99.90
59128;DHT22;44912;52.754;5.994;2023-09-19T06:58:58;14.30;99.90
59128;DHT22;44912;52.754;5.994;2023-09-19T07:01:24;14.30;99.90
59128;DHT22;44912;52.754;5.994;2023-09-19T07:03:50;14.30;99.90
59128;DHT22;44912;52.754;5.994;2023-09-19T07:06:16;14.40;99.90
59128;DHT22;44912;52.754;5.994;2023-09-19T07:08:42;14.40;99.90
59128;DHT22;44912;52.754;5.994;2023-09-19T07:11:09;14.30;99.90
59128;DHT22;44912;52.754;5.994;2023-09-19T07:13:36;14.30;99.90
59128;DHT22;44912;52.754;5.994;2023-09-19T07:16:02;14.30;99.90
59128;DHT22;44912;52.754;5.994;2023-09-19T07:18:27;14.30;99.90
59128;DHT22;44912;52.754;5.994;2023-09-19T07:20:57;14.30;99.90
59128;DHT22;44912;52.754;5.994;2023-09-19T07:23:26;14.20;99.90
59128;DHT22;44912;52.754;5.994;2023-09-19T07:25:52;14.20;99.90
59128;DHT22;44912;52.754;5.994;2023-09-19T07:28:21;14.20;99.90
59128;DHT22;44912;52.754;5.994;2023-09-19T07:30:48;14.20;99.90
59128;DHT22;44912;52.754;5.994;2023-09-19T07:33:13;14.40;99.90
59128;DHT22;44912;52.754;5.994;2023-09-19T07:35:39;14.40;99.90
59128;DHT22;44912;52.754;5.994;2023-09-19T07:38:06;14.40;99.90
59128;DHT22;44912;52.754;5.994;2023-09-19T07:40:31;14.40;99.90
59128;DHT22;44912;52.754;5.994;2023-09-19T07:42:57;14.50;99.90
59128;DHT22;44912;52.754;5.994;2023-09-19T07:45:27;14.60;99.90
59128;DHT22;44912;52.754;5.994;2023-09-19T07:47:53;14.60;99.90
59128;DHT22;44912;52.754;5.994;2023-09-19T07:50:20;14.60;99.90
59128;DHT22;44912;52.754;5.994;2023-09-19T07:52:49;14.70;99.90
59128;DHT22;44912;52.754;5.994;2023-09-19T07:55:19;14.80;99.90
59128;DHT22;44912;52.754;5.994;2023-09-19T07:57:48;14.80;99.90
59128;DHT22;44912;52.754;5.994;2023-09-19T08:00:14;14.90;99.90
59128;DHT22;44912;52.754;5.994;2023-09-19T08:02:40;14.90;99.90
59128;DHT22;44912;52.754;5.994;2023-09-19T08:05:08;15.00;99.90
59128;DHT22;44912;52.754;5.994;2023-09-19T08:07:41;15.20;99.90
59128;DHT22;44912;52.754;5.994;2023-09-19T08:10:08;15.30;99.90
59128;DHT22;44912;52.754;5.994;2023-09-19T08:12:39;15.40;99.90
59128;DHT22;44912;52.754;5.994;2023-09-19T08:15:15;15.40;99.90
59128;DHT22;44912;52.754;5.994;2023-09-19T08:17:40;15.30;99.90
59128;DHT22;44912;52.754;5.994;2023-09-19T08:20:07;15.30;99.90
59128;DHT22;44912;52.754;5.994;2023-09-19T08:22:33;15.50;99.90
59128;DHT22;44912;52.754;5.994;2023-09-19T08:25:00;15.60;99.90
59128;DHT22;44912;52.754;5.994;2023-09-19T08:27:30;15.70;99.90
59128;DHT22;44912;52.754;5.994;2023-09-19T08:29:56;15.70;99.90
59128;DHT22;44912;52.754;5.994;2023-09-19T08:32:22;15.70;99.90
59128;DHT22;44912;52.754;5.994;2023-09-19T08:34:50;15.80;99.90
59128;DHT22;44912;52.754;5.994;2023-09-19T08:37:15;15.90;99.90
59128;DHT22;44912;52.754;5.994;2023-09-19T08:39:42;15.90;99.90
59128;DHT22;44912;52.754;5.994;2023-09-19T08:42:08;16.00;99.90
59128;DHT22;44912;52.754;5.994;2023-09-19T08:44:37;16.10;99.90
59128;DHT22;44912;52.754;5.994;2023-09-19T08:47:11;16.20;99.90
59128;DHT22;44912;52.754;5.994;2023-09-19T08:52:27;16.40;99.90
59128;DHT22;44912;52.754;5.994;2023-09-19T08:54:58;16.60;99.90
59128;DHT22;44912;52.754;5.994;2023-09-19T08:57:29;16.60;99.90
59128;DHT22;44912;52.754;5.994;2023-09-19T08:59:59;16.70;99.90
59128;DHT22;44912;52.754;5.994;2023-09-19T09:02:26;16.90;99.90
59128;DHT22;44912;52.754;5.994;2023-09-19T09:04:53;16.90;99.90
59128;DHT22;44912;52.754;5.994;2023-09-19T09:07:20;16.80;99.90
59128;DHT22;44912;52.754;5.994;2023-09-19T09:09:47;16.80;99.90
59128;DHT22;44912;52.754;5.994;2023-09-19T09:12:14;16.80;99.90
59128;DHT22;44912;52.754;5.994;2023-09-19T09:14:44;16.90;99.90
59128;DHT22;44912;52.754;5.994;2023-09-19T09:17:10;17.10;99.90
59128;DHT22;44912;52.754;5.994;2023-09-19T09:19:36;17.20;99.90
59128;DHT22;44912;52.754;5.994;2023-09-19T09:22:07;17.30;99.90
59128;DHT22;44912;52.754;5.994;2023-09-19T09:24:33;17.20;99.90
59128;DHT22;44912;52.754;5.994;2023-09-19T09:26:59;17.20;99.90
59128;DHT22;44912;52.754;5.994;2023-09-19T09:29:47;17.20;99.90
59128;DHT22;44912;52.754;5.994;2023-09-19T09:32:20;17.10;99.90
59128;DHT22;44912;52.754;5.994;2023-09-19T09:34:55;17.20;99.90
59128;DHT22;44912;52.754;5.994;2023-09-19T09:37:21;17.20;99.90
59128;DHT22;44912;52.754;5.994;2023-09-19T09:42:35;17.20;99.90
59128;DHT22;44912;52.754;5.994;2023-09-19T09:47:43;17.30;99.90
59128;DHT22;44912;52.754;5.994;2023-09-19T09:52:55;17.30;99.90
59128;DHT22;44912;52.754;5.994;2023-09-19T09:58:24;17.50;99.90
59128;DHT22;44912;52.754;5.994;2023-09-19T10:00:55;17.60;99.90
59128;DHT22;44912;52.754;5.994;2023-09-19T10:03:37;17.70;99.90
59128;DHT22;44912;52.754;5.994;2023-09-19T10:06:07;17.80;99.90
59128;DHT22;44912;52.754;5.994;2023-09-19T10:09:05;17.90;99.90
59128;DHT22;44912;52.754;5.994;2023-09-19T10:11:45;18.00;99.90
59128;DHT22;44912;52.754;5.994;2023-09-19T10:14:17;18.00;99.90
59128;DHT22;44912;52.754;5.994;2023-09-19T10:16:49;18.10;99.90
59128;DHT22;44912;52.754;5.994;2023-09-19T10:22:04;18.10;99.90
59128;DHT22;44912;52.754;5.994;2023-09-19T10:24:33;18.20;99.90
59128;DHT22;44912;52.754;5.994;2023-09-19T10:27:00;18.20;99.90
59128;DHT22;44912;52.754;5.994;2023-09-19T10:29:28;18.30;99.90
59128;DHT22;44912;52.754;5.994;2023-09-19T10:31:56;18.50;99.90
59128;DHT22;44912;52.754;5.994;2023-09-19T10:34:24;18.40;99.90
59128;DHT22;44912;52.754;5.994;2023-09-19T10:36:51;18.40;99.90
59128;DHT22;44912;52.754;5.994;2023-09-19T10:39:18;18.40;99.90
59128;DHT22;44912;52.754;5.994;2023-09-19T10:41:50;18.50;99.90
59128;DHT22;44912;52.754;5.994;2023-09-19T10:44:26;18.40;99.90
59128;DHT22;44912;52.754;5.994;2023-09-19T10:46:52;18.40;99.90
59128;DHT22;44912;52.754;5.994;2023-09-19T10:49:19;18.30;99.90
59128;DHT22;44912;52.754;5.994;2023-09-19T10:51:47;18.20;99.90
59128;DHT22;44912;52.754;5.994;2023-09-19T10:54:17;18.20;99.90
59128;DHT22;44912;52.754;5.994;2023-09-19T10:56:49;18.10;99.90
59128;DHT22;44912;52.754;5.994;2023-09-19T10:59:18;18.10;99.90
59128;DHT22;44912;52.754;5.994;2023-09-19T11:01:55;18.20;99.90
59128;DHT22;44912;52.754;5.994;2023-09-19T11:04:31;18.20;99.90
59128;DHT22;44912;52.754;5.994;2023-09-19T11:09:52;18.40;99.90
59128;DHT22;44912;52.754;5.994;2023-09-19T11:15:03;18.70;99.90
59128;DHT22;44912;52.754;5.994;2023-09-19T11:17:34;18.80;99.90
59128;DHT22;44912;52.754;5.994;2023-09-19T11:30:34;18.50;99.90
59128;DHT22;44912;52.754;5.994;2023-09-19T11:33:19;18.50;99.90
59128;DHT22;44912;52.754;5.994;2023-09-19T11:36:10;18.50;99.90
59128;DHT22;44912;52.754;5.994;2023-09-19T11:43:50;18.40;99.90
59128;DHT22;44912;52.754;5.994;2023-09-19T11:46:17;18.40;99.90
59128;DHT22;44912;52.754;5.994;2023-09-19T11:48:48;18.40;99.90
59128;DHT22;44912;52.754;5.994;2023-09-19T11:51:24;18.40;99.90
59128;DHT22;44912;52.754;5.994;2023-09-19T11:53:54;18.30;99.90
59128;DHT22;44912;52.754;5.994;2023-09-19T11:56:22;18.30;99.90
59128;DHT22;44912;52.754;5.994;2023-09-19T11:58:50;18.30;99.90
59128;DHT22;44912;52.754;5.994;2023-09-19T12:01:30;18.30;99.90
59128;DHT22;44912;52.754;5.994;2023-09-19T12:03:58;18.30;99.90
59128;DHT22;44912;52.754;5.994;2023-09-19T12:06:29;18.30;99.90
59128;DHT22;44912;52.754;5.994;2023-09-19T12:08:55;18.30;99.90
59128;DHT22;44912;52.754;5.994;2023-09-19T12:11:23;18.50;99.90
59128;DHT22;44912;52.754;5.994;2023-09-19T12:13:49;18.70;99.90
59128;DHT22;44912;52.754;5.994;2023-09-19T12:16:16;18.80;99.90
59128;DHT22;44912;52.754;5.994;2023-09-19T12:18:43;18.90;99.90
59128;DHT22;44912;52.754;5.994;2023-09-19T12:21:27;19.00;99.90
59128;DHT22;44912;52.754;5.994;2023-09-19T12:23:59;19.00;99.90
59128;DHT22;44912;52.754;5.994;2023-09-19T12:26:26;18.90;99.90
59128;DHT22;44912;52.754;5.994;2023-09-19T12:28:54;18.90;99.90
59128;DHT22;44912;52.754;5.994;2023-09-19T12:31:20;18.80;99.90
59128;DHT22;44912;52.754;5.994;2023-09-19T12:33:46;18.70;99.90
59128;DHT22;44912;52.754;5.994;2023-09-19T12:36:24;18.50;99.90
59128;DHT22;44912;52.754;5.994;2023-09-19T12:38:56;18.50;99.90
59128;DHT22;44912;52.754;5.994;2023-09-19T12:41:25;18.40;99.90
59128;DHT22;44912;52.754;5.994;2023-09-19T12:43:55;18.40;99.90
59128;DHT22;44912;52.754;5.994;2023-09-19T12:46:21;18.40;99.90
59128;DHT22;44912;52.754;5.994;2023-09-19T12:49:14;18.40;99.90
59128;DHT22;44912;52.754;5.994;2023-09-19T12:51:42;18.40;99.90
59128;DHT22;44912;52.754;5.994;2023-09-19T12:54:09;18.40;99.90
59128;DHT22;44912;52.754;5.994;2023-09-19T12:56:43;18.40;99.90
59128;DHT22;44912;52.754;5.994;2023-09-19T12:59:14;18.40;99.90
59128;DHT22;44912;52.754;5.994;2023-09-19T13:01:43;18.40;99.90
59128;DHT22;44912;52.754;5.994;2023-09-19T13:04:18;18.40;99.90
59128;DHT22;44912;52.754;5.994;2023-09-19T13:06:49;18.40;99.90
59128;DHT22;44912;52.754;5.994;2023-09-19T13:09:16;18.40;99.90
59128;DHT22;44912;52.754;5.994;2023-09-19T13:11:43;18.40;99.90
59128;DHT22;44912;52.754;5.994;2023-09-19T13:14:24;18.40;99.90
59128;DHT22;44912;52.754;5.994;2023-09-19T13:19:42;18.40;99.90
59128;DHT22;44912;52.754;5.994;2023-09-19T13:22:36;18.30;99.90
59128;DHT22;44912;52.754;5.994;2023-09-19T13:25:07;18.20;99.90
59128;DHT22;44912;52.754;5.994;2023-09-19T13:27:33;18.20;99.90
59128;DHT22;44912;52.754;5.994;2023-09-19T13:29:59;18.10;99.90
59128;DHT22;44912;52.754;5.994;2023-09-19T13:32:26;18.20;99.90
59128;DHT22;44912;52.754;5.994;2023-09-19T13:34:51;18.20;99.90
59128;DHT22;44912;52.754;5.994;2023-09-19T13:37:17;18.30;99.90
59128;DHT22;44912;52.754;5.994;2023-09-19T13:39:43;18.40;99.90
59128;DHT22;44912;52.754;5.994;2023-09-19T13:42:13;18.60;99.90
59128;DHT22;44912;52.754;5.994;2023-09-19T13:44:38;18.70;99.90
59128;DHT22;44912;52.754;5.994;2023-09-19T13:47:06;18.80;99.90
59128;DHT22;44912;52.754;5.994;2023-09-19T13:49:35;18.80;99.90
59128;DHT22;44912;52.754;5.994;2023-09-19T13:52:01;18.90;99.90
59128;DHT22;44912;52.754;5.994;2023-09-19T13:54:30;18.90;99.90
59128;DHT22;44912;52.754;5.994;2023-09-19T13:56:56;18.80;99.90
59128;DHT22;44912;52.754;5.994;2023-09-19T13:59:22;18.80;99.90
59128;DHT22;44912;52.754;5.994;2023-09-19T14:01:49;18.80;99.90
59128;DHT22;44912;52.754;5.994;2023-09-19T14:04:16;18.80;99.90
59128;DHT22;44912;52.754;5.994;2023-09-19T14:06:42;18.70;99.90
59128;DHT22;44912;52.754;5.994;2023-09-19T14:09:08;18.70;99.90
59128;DHT22;44912;52.754;5.994;2023-09-19T14:11:35;18.70;99.90
59128;DHT22;44912;52.754;5.994;2023-09-19T14:14:01;18.70;99.90
59128;DHT22;44912;52.754;5.994;2023-09-19T14:16:27;18.60;99.90
59128;DHT22;44912;52.754;5.994;2023-09-19T14:18:55;18.60;99.90
59128;DHT22;44912;52.754;5.994;2023-09-19T14:21:21;18.70;99.90
59128;DHT22;44912;52.754;5.994;2023-09-19T14:23:46;18.60;99.90
59128;DHT22;44912;52.754;5.994;2023-09-19T14:26:12;18.60;99.90
59128;DHT22;44912;52.754;5.994;2023-09-19T14:28:37;18.60;99.90
59128;DHT22;44912;52.754;5.994;2023-09-19T14:31:07;18.60;99.90
59128;DHT22;44912;52.754;5.994;2023-09-19T14:33:33;18.60;99.90
59128;DHT22;44912;52.754;5.994;2023-09-19T14:36:03;18.50;99.90
59128;DHT22;44912;52.754;5.994;2023-09-19T14:38:30;18.40;99.90
59128;DHT22;44912;52.754;5.994;2023-09-19T14:40:59;18.20;99.90
59128;DHT22;44912;52.754;5.994;2023-09-19T14:43:25;18.10;99.90
59128;DHT22;44912;52.754;5.994;2023-09-19T14:45:51;18.10;99.90
59128;DHT22;44912;52.754;5.994;2023-09-19T14:48:16;18.00;99.90
59128;DHT22;44912;52.754;5.994;2023-09-19T14:50:42;18.00;99.90
59128;DHT22;44912;52.754;5.994;2023-09-19T14:53:09;17.90;99.90
59128;DHT22;44912;52.754;5.994;2023-09-19T14:55:39;17.90;99.90
59128;DHT22;44912;52.754;5.994;2023-09-19T14:58:09;17.80;99.90
59128;DHT22;44912;52.754;5.994;2023-09-19T15:00:35;17.80;99.90
59128;DHT22;44912;52.754;5.994;2023-09-19T15:03:00;17.70;99.90
59128;DHT22;44912;52.754;5.994;2023-09-19T15:05:27;17.70;99.90
59128;DHT22;44912;52.754;5.994;2023-09-19T15:07:54;17.70;99.90
59128;DHT22;44912;52.754;5.994;2023-09-19T15:10:22;17.70;99.90
59128;DHT22;44912;52.754;5.994;2023-09-19T15:12:48;17.70;99.90
59128;DHT22;44912;52.754;5.994;2023-09-19T15:15:14;17.70;99.90
59128;DHT22;44912;52.754;5.994;2023-09-19T15:17:39;17.70;99.90
59128;DHT22;44912;52.754;5.994;2023-09-19T15:20:06;17.80;99.90
59128;DHT22;44912;52.754;5.994;2023-09-19T15:22:36;17.70;99.90
59128;DHT22;44912;52.754;5.994;2023-09-19T15:25:02;17.70;99.90
59128;DHT22;44912;52.754;5.994;2023-09-19T15:27:29;17.70;99.90
59128;DHT22;44912;52.754;5.994;2023-09-19T15:29:57;17.60;99.90
59128;DHT22;44912;52.754;5.994;2023-09-19T15:32:24;17.60;99.90
59128;DHT22;44912;52.754;5.994;2023-09-19T15:34:50;17.50;99.90
59128;DHT22;44912;52.754;5.994;2023-09-19T15:37:15;17.50;99.90
59128;DHT22;44912;52.754;5.994;2023-09-19T15:39:41;17.40;99.90
59128;DHT22;44912;52.754;5.994;2023-09-19T15:42:07;17.40;99.90
59128;DHT22;44912;52.754;5.994;2023-09-19T15:44:33;17.40;99.90
59128;DHT22;44912;52.754;5.994;2023-09-19T15:46:59;17.40;99.90
59128;DHT22;44912;52.754;5.994;2023-09-19T15:49:24;17.30;99.90
59128;DHT22;44912;52.754;5.994;2023-09-19T15:51:50;17.30;99.90
59128;DHT22;44912;52.754;5.994;2023-09-19T15:54:16;17.20;99.90
59128;DHT22;44912;52.754;5.994;2023-09-19T15:56:44;17.20;99.90
59128;DHT22;44912;52.754;5.994;2023-09-19T15:59:10;17.10;99.90
59128;DHT22;44912;52.754;5.994;2023-09-19T16:01:38;17.00;99.90
59128;DHT22;44912;52.754;5.994;2023-09-19T16:04:05;17.00;99.90
59128;DHT22;44912;52.754;5.994;2023-09-19T16:06:34;16.90;99.90
59128;DHT22;44912;52.754;5.994;2023-09-19T16:09:00;16.90;99.90
59128;DHT22;44912;52.754;5.994;2023-09-19T16:11:31;16.90;99.90
59128;DHT22;44912;52.754;5.994;2023-09-19T16:13:57;16.90;99.90
59128;DHT22;44912;52.754;5.994;2023-09-19T16:16:24;16.90;99.90
59128;DHT22;44912;52.754;5.994;2023-09-19T16:18:55;16.90;99.90
59128;DHT22;44912;52.754;5.994;2023-09-19T16:21:27;16.90;99.90
59128;DHT22;44912;52.754;5.994;2023-09-19T16:23:54;17.00;99.90
59128;DHT22;44912;52.754;5.994;2023-09-19T16:26:20;17.00;99.90
59128;DHT22;44912;52.754;5.994;2023-09-19T16:28:49;17.00;99.90